sensor_id;sensor_type;location;lat;lon;timestamp;P1;P2;P0
77699;PMS5003;66867;42.658;23.320;2023-04-25T00:00:00;11;10;
77699;PMS5003;66867;42.658;23.320;2023-04-25T00:01:00;10;10;
77699;PMS5003;66867;42.658;23.320;2023-04-25T00:02:00;11;11;
77699;PMS5003;66867;42.658;23.320;2023-04-25T00:03:00;10;10;
77699;PMS5003;66867;42.658;23.320;2023-04-25T00:04:00;9;9;
77699;PMS5003;66867;42.658;23.320;2023-04-25T00:05:01;11;10;
77699;PMS5003;66867;42.658;23.320;2023-04-25T00:06:00;11;11;
77699;PMS5003;66867;42.658;23.320;2023-04-25T00:07:00;10;10;
77699;PMS5003;66867;42.658;23.320;2023-04-25T00:08:00;10;10;
77699;PMS5003;66867;42.658;23.320;2023-04-25T00:09:00;10;10;
77699;PMS5003;66867;42.658;23.320;2023-04-25T00:10:00;10;10;
77699;PMS5003;66867;42.658;23.320;2023-04-25T00:11:00;9;8;
77699;PMS5003;66867;42.658;23.320;2023-04-25T00:12:00;9;9;
77699;PMS5003;66867;42.658;23.320;2023-04-25T00:13:00;12;11;
77699;PMS5003;66867;42.658;23.320;2023-04-25T00:14:00;8;8;
77699;PMS5003;66867;42.658;23.320;2023-04-25T00:15:00;8;8;
77699;PMS5003;66867;42.658;23.320;2023-04-25T00:16:00;11;11;
77699;PMS5003;66867;42.658;23.320;2023-04-25T00:17:00;9;9;
77699;PMS5003;66867;42.658;23.320;2023-04-25T00:18:00;9;8;
77699;PMS5003;66867;42.658;23.320;2023-04-25T00:19:01;10;10;
77699;PMS5003;66867;42.658;23.320;2023-04-25T00:20:01;9;9;
77699;PMS5003;66867;42.658;23.320;2023-04-25T00:21:00;11;10;
77699;PMS5003;66867;42.658;23.320;2023-04-25T00:22:00;8;8;
77699;PMS5003;66867;42.658;23.320;2023-04-25T00:23:00;8;7;
77699;PMS5003;66867;42.658;23.320;2023-04-25T00:24:00;8;8;
77699;PMS5003;66867;42.658;23.320;2023-04-25T00:25:00;7;7;
77699;PMS5003;66867;42.658;23.320;2023-04-25T00:26:00;10;9;
77699;PMS5003;66867;42.658;23.320;2023-04-25T00:27:00;11;10;
77699;PMS5003;66867;42.658;23.320;2023-04-25T00:28:00;8;8;
77699;PMS5003;66867;42.658;23.320;2023-04-25T00:29:00;9;9;
77699;PMS5003;66867;42.658;23.320;2023-04-25T00:30:00;8;8;
77699;PMS5003;66867;42.658;23.320;2023-04-25T00:31:00;9;8;
77699;PMS5003;66867;42.658;23.320;2023-04-25T00:32:01;10;10;
77699;PMS5003;66867;42.658;23.320;2023-04-25T00:33:00;11;11;
77699;PMS5003;66867;42.658;23.320;2023-04-25T00:34:00;12;12;
77699;PMS5003;66867;42.658;23.320;2023-04-25T00:35:00;12;12;
77699;PMS5003;66867;42.658;23.320;2023-04-25T00:36:00;10;10;
77699;PMS5003;66867;42.658;23.320;2023-04-25T00:37:00;10;10;
77699;PMS5003;66867;42.658;23.320;2023-04-25T00:38:00;12;12;
77699;PMS5003;66867;42.658;23.320;2023-04-25T00:39:00;13;13;
77699;PMS5003;66867;42.658;23.320;2023-04-25T00:40:00;10;10;
77699;PMS5003;66867;42.658;23.320;2023-04-25T00:41:00;12;12;
77699;PMS5003;66867;42.658;23.320;2023-04-25T00:42:00;12;12;
77699;PMS5003;66867;42.658;23.320;2023-04-25T00:43:00;11;11;
77699;PMS5003;66867;42.658;23.320;2023-04-25T00:44:00;11;11;
77699;PMS5003;66867;42.658;23.320;2023-04-25T00:45:00;18;18;
77699;PMS5003;66867;42.658;23.320;2023-04-25T00:46:01;14;13;
77699;PMS5003;66867;42.658;23.320;2023-04-25T00:47:01;12;11;
77699;PMS5003;66867;42.658;23.320;2023-04-25T00:48:00;12;12;
77699;PMS5003;66867;42.658;23.320;2023-04-25T00:49:00;14;14;
77699;PMS5003;66867;42.658;23.320;2023-04-25T00:50:00;18;17;
77699;PMS5003;66867;42.658;23.320;2023-04-25T00:51:00;11;11;
77699;PMS5003;66867;42.658;23.320;2023-04-25T00:52:00;14;13;
77699;PMS5003;66867;42.658;23.320;2023-04-25T00:53:00;12;12;
77699;PMS5003;66867;42.658;23.320;2023-04-25T00:54:00;13;12;
77699;PMS5003;66867;42.658;23.320;2023-04-25T00:55:00;12;12;
77699;PMS5003;66867;42.658;23.320;2023-04-25T00:56:00;10;10;
77699;PMS5003;66867;42.658;23.320;2023-04-25T00:57:00;12;12;
77699;PMS5003;66867;42.658;23.320;2023-04-25T00:58:00;16;13;
77699;PMS5003;66867;42.658;23.320;2023-04-25T00:59:00;12;12;
77699;PMS5003;66867;42.658;23.320;2023-04-25T01:00:00;13;13;
77699;PMS5003;66867;42.658;23.320;2023-04-25T01:01:00;12;12;
77699;PMS5003;66867;42.658;23.320;2023-04-25T01:02:00;14;13;
77699;PMS5003;66867;42.658;23.320;2023-04-25T01:03:00;14;13;
77699;PMS5003;66867;42.658;23.320;2023-04-25T01:04:00;12;12;
77699;PMS5003;66867;42.658;23.320;2023-04-25T01:05:00;16;16;
77699;PMS5003;66867;42.658;23.320;2023-04-25T01:06:01;18;17;
77699;PMS5003;66867;42.658;23.320;2023-04-25T01:07:00;12;12;
77699;PMS5003;66867;42.658;23.320;2023-04-25T01:08:00;13;13;
77699;PMS5003;66867;42.658;23.320;2023-04-25T01:09:01;12;12;
77699;PMS5003;66867;42.658;23.320;2023-04-25T01:10:00;11;11;
77699;PMS5003;66867;42.658;23.320;2023-04-25T01:11:00;14;14;
77699;PMS5003;66867;42.658;23.320;2023-04-25T01:12:00;14;13;
77699;PMS5003;66867;42.658;23.320;2023-04-25T01:13:00;13;12;
77699;PMS5003;66867;42.658;23.320;2023-04-25T01:14:00;14;14;
77699;PMS5003;66867;42.658;23.320;2023-04-25T01:15:00;16;14;
77699;PMS5003;66867;42.658;23.320;2023-04-25T01:16:01;13;13;
77699;PMS5003;66867;42.658;23.320;2023-04-25T01:17:00;16;16;
77699;PMS5003;66867;42.658;23.320;2023-04-25T01:18:00;11;11;
77699;PMS5003;66867;42.658;23.320;2023-04-25T01:19:00;14;14;
77699;PMS5003;66867;42.658;23.320;2023-04-25T01:20:02;12;12;
77699;PMS5003;66867;42.658;23.320;2023-04-25T01:21:09;17;15;
77699;PMS5003;66867;42.658;23.320;2023-04-25T01:22:00;12;12;
77699;PMS5003;66867;42.658;23.320;2023-04-25T01:23:01;13;13;
77699;PMS5003;66867;42.658;23.320;2023-04-25T01:24:00;14;14;
77699;PMS5003;66867;42.658;23.320;2023-04-25T01:25:00;12;12;
77699;PMS5003;66867;42.658;23.320;2023-04-25T01:26:00;16;14;
77699;PMS5003;66867;42.658;23.320;2023-04-25T01:27:00;17;16;
77699;PMS5003;66867;42.658;23.320;2023-04-25T01:28:00;12;12;
77699;PMS5003;66867;42.658;23.320;2023-04-25T01:29:00;15;15;
77699;PMS5003;66867;42.658;23.320;2023-04-25T01:30:00;15;12;
77699;PMS5003;66867;42.658;23.320;2023-04-25T01:31:01;13;12;
77699;PMS5003;66867;42.658;23.320;2023-04-25T01:32:01;14;13;
77699;PMS5003;66867;42.658;23.320;2023-04-25T01:33:00;13;13;
77699;PMS5003;66867;42.658;23.320;2023-04-25T01:34:00;16;13;
77699;PMS5003;66867;42.658;23.320;2023-04-25T01:35:00;14;12;
77699;PMS5003;66867;42.658;23.320;2023-04-25T01:36:00;11;11;
77699;PMS5003;66867;42.658;23.320;2023-04-25T01:37:00;16;14;
77699;PMS5003;66867;42.658;23.320;2023-04-25T01:38:00;11;11;
77699;PMS5003;66867;42.658;23.320;2023-04-25T01:39:00;12;12;
77699;PMS5003;66867;42.658;23.320;2023-04-25T01:40:00;14;13;
77699;PMS5003;66867;42.658;23.320;2023-04-25T01:41:00;11;11;
77699;PMS5003;66867;42.658;23.320;2023-04-25T01:42:00;13;12;
77699;PMS5003;66867;42.658;23.320;2023-04-25T01:43:00;13;12;
77699;PMS5003;66867;42.658;23.320;2023-04-25T01:44:01;12;11;
77699;PMS5003;66867;42.658;23.320;2023-04-25T01:45:00;17;16;
77699;PMS5003;66867;42.658;23.320;2023-04-25T01:46:00;14;14;
77699;PMS5003;66867;42.658;23.320;2023-04-25T01:47:00;14;14;
77699;PMS5003;66867;42.658;23.320;2023-04-25T01:48:00;12;11;
77699;PMS5003;66867;42.658;23.320;2023-04-25T01:49:00;11;11;
77699;PMS5003;66867;42.658;23.320;2023-04-25T01:50:01;13;13;
77699;PMS5003;66867;42.658;23.320;2023-04-25T01:51:00;11;11;
77699;PMS5003;66867;42.658;23.320;2023-04-25T01:52:00;11;11;
77699;PMS5003;66867;42.658;23.320;2023-04-25T01:53:00;11;11;
77699;PMS5003;66867;42.658;23.320;2023-04-25T01:54:00;11;11;
77699;PMS5003;66867;42.658;23.320;2023-04-25T01:55:01;13;13;
77699;PMS5003;66867;42.658;23.320;2023-04-25T01:56:00;14;14;
77699;PMS5003;66867;42.658;23.320;2023-04-25T01:57:00;12;12;
77699;PMS5003;66867;42.658;23.320;2023-04-25T01:58:02;12;11;
77699;PMS5003;66867;42.658;23.320;2023-04-25T01:59:00;12;12;
77699;PMS5003;66867;42.658;23.320;2023-04-25T02:00:02;13;13;
77699;PMS5003;66867;42.658;23.320;2023-04-25T02:01:00;12;11;
77699;PMS5003;66867;42.658;23.320;2023-04-25T02:02:00;13;11;
77699;PMS5003;66867;42.658;23.320;2023-04-25T02:03:00;13;13;
77699;PMS5003;66867;42.658;23.320;2023-04-25T02:04:00;12;12;
77699;PMS5003;66867;42.658;23.320;2023-04-25T02:05:00;16;14;
77699;PMS5003;66867;42.658;23.320;2023-04-25T02:06:00;13;13;
77699;PMS5003;66867;42.658;23.320;2023-04-25T02:07:00;12;12;
77699;PMS5003;66867;42.658;23.320;2023-04-25T02:08:00;12;12;
77699;PMS5003;66867;42.658;23.320;2023-04-25T02:09:00;13;13;
77699;PMS5003;66867;42.658;23.320;2023-04-25T02:10:00;17;16;
77699;PMS5003;66867;42.658;23.320;2023-04-25T02:11:00;13;13;
77699;PMS5003;66867;42.658;23.320;2023-04-25T02:12:00;13;13;
77699;PMS5003;66867;42.658;23.320;2023-04-25T02:13:00;12;12;
77699;PMS5003;66867;42.658;23.320;2023-04-25T02:14:00;11;11;
77699;PMS5003;66867;42.658;23.320;2023-04-25T02:15:00;13;12;
77699;PMS5003;66867;42.658;23.320;2023-04-25T02:16:00;13;12;
77699;PMS5003;66867;42.658;23.320;2023-04-25T02:17:00;12;11;
77699;PMS5003;66867;42.658;23.320;2023-04-25T02:18:01;13;13;
77699;PMS5003;66867;42.658;23.320;2023-04-25T02:19:00;11;10;
77699;PMS5003;66867;42.658;23.320;2023-04-25T02:20:00;18;16;
77699;PMS5003;66867;42.658;23.320;2023-04-25T02:21:00;10;10;
77699;PMS5003;66867;42.658;23.320;2023-04-25T02:22:00;12;12;
77699;PMS5003;66867;42.658;23.320;2023-04-25T02:23:00;13;13;
77699;PMS5003;66867;42.658;23.320;2023-04-25T02:24:00;11;10;
77699;PMS5003;66867;42.658;23.320;2023-04-25T02:25:00;12;12;
77699;PMS5003;66867;42.658;23.320;2023-04-25T02:26:00;11;10;
77699;PMS5003;66867;42.658;23.320;2023-04-25T02:27:00;11;10;
77699;PMS5003;66867;42.658;23.320;2023-04-25T02:28:00;17;17;
77699;PMS5003;66867;42.658;23.320;2023-04-25T02:29:00;12;11;
77699;PMS5003;66867;42.658;23.320;2023-04-25T02:30:00;17;16;
77699;PMS5003;66867;42.658;23.320;2023-04-25T02:31:00;17;16;
77699;PMS5003;66867;42.658;23.320;2023-04-25T02:32:00;14;14;
77699;PMS5003;66867;42.658;23.320;2023-04-25T02:33:00;11;11;
77699;PMS5003;66867;42.658;23.320;2023-04-25T02:34:00;14;14;
77699;PMS5003;66867;42.658;23.320;2023-04-25T02:35:01;18;18;
77699;PMS5003;66867;42.658;23.320;2023-04-25T02:36:00;17;17;
77699;PMS5003;66867;42.658;23.320;2023-04-25T02:37:00;13;13;
77699;PMS5003;66867;42.658;23.320;2023-04-25T02:38:00;16;16;
77699;PMS5003;66867;42.658;23.320;2023-04-25T02:39:01;15;15;
77699;PMS5003;66867;42.658;23.320;2023-04-25T02:40:00;14;14;
77699;PMS5003;66867;42.658;23.320;2023-04-25T02:41:00;12;12;
77699;PMS5003;66867;42.658;23.320;2023-04-25T02:42:00;18;17;
77699;PMS5003;66867;42.658;23.320;2023-04-25T02:43:00;12;12;
77699;PMS5003;66867;42.658;23.320;2023-04-25T02:44:00;13;12;
77699;PMS5003;66867;42.658;23.320;2023-04-25T02:45:00;15;13;
77699;PMS5003;66867;42.658;23.320;2023-04-25T02:46:00;13;13;
77699;PMS5003;66867;42.658;23.320;2023-04-25T02:47:00;17;17;
77699;PMS5003;66867;42.658;23.320;2023-04-25T02:48:00;14;13;
77699;PMS5003;66867;42.658;23.320;2023-04-25T02:49:00;17;13;
77699;PMS5003;66867;42.658;23.320;2023-04-25T02:50:00;13;13;
77699;PMS5003;66867;42.658;23.320;2023-04-25T02:51:00;16;15;
77699;PMS5003;66867;42.658;23.320;2023-04-25T02:52:00;16;13;
77699;PMS5003;66867;42.658;23.320;2023-04-25T02:53:00;13;12;
77699;PMS5003;66867;42.658;23.320;2023-04-25T02:54:00;16;15;
77699;PMS5003;66867;42.658;23.320;2023-04-25T02:55:00;17;15;
77699;PMS5003;66867;42.658;23.320;2023-04-25T02:56:00;12;12;
77699;PMS5003;66867;42.658;23.320;2023-04-25T02:57:00;12;12;
77699;PMS5003;66867;42.658;23.320;2023-04-25T02:58:00;17;16;
77699;PMS5003;66867;42.658;23.320;2023-04-25T02:59:00;15;15;
77699;PMS5003;66867;42.658;23.320;2023-04-25T03:00:00;12;12;
77699;PMS5003;66867;42.658;23.320;2023-04-25T03:01:00;16;16;
77699;PMS5003;66867;42.658;23.320;2023-04-25T03:02:00;20;20;
77699;PMS5003;66867;42.658;23.320;2023-04-25T03:03:00;17;17;
77699;PMS5003;66867;42.658;23.320;2023-04-25T03:04:00;17;16;
77699;PMS5003;66867;42.658;23.320;2023-04-25T03:05:00;16;16;
77699;PMS5003;66867;42.658;23.320;2023-04-25T03:06:00;16;15;
77699;PMS5003;66867;42.658;23.320;2023-04-25T03:07:00;14;14;
77699;PMS5003;66867;42.658;23.320;2023-04-25T03:08:00;17;17;
77699;PMS5003;66867;42.658;23.320;2023-04-25T03:09:00;19;19;
77699;PMS5003;66867;42.658;23.320;2023-04-25T03:10:00;18;18;
77699;PMS5003;66867;42.658;23.320;2023-04-25T03:11:00;14;14;
77699;PMS5003;66867;42.658;23.320;2023-04-25T03:12:00;17;17;
77699;PMS5003;66867;42.658;23.320;2023-04-25T03:13:00;19;19;
77699;PMS5003;66867;42.658;23.320;2023-04-25T03:14:00;20;19;
77699;PMS5003;66867;42.658;23.320;2023-04-25T03:15:00;22;21;
77699;PMS5003;66867;42.658;23.320;2023-04-25T03:16:00;18;18;
77699;PMS5003;66867;42.658;23.320;2023-04-25T03:17:00;20;18;
77699;PMS5003;66867;42.658;23.320;2023-04-25T03:18:00;20;19;
77699;PMS5003;66867;42.658;23.320;2023-04-25T03:19:00;18;18;
77699;PMS5003;66867;42.658;23.320;2023-04-25T03:20:00;16;16;
77699;PMS5003;66867;42.658;23.320;2023-04-25T03:21:00;18;18;
77699;PMS5003;66867;42.658;23.320;2023-04-25T03:22:00;22;21;
77699;PMS5003;66867;42.658;23.320;2023-04-25T03:23:00;19;19;
77699;PMS5003;66867;42.658;23.320;2023-04-25T03:24:01;18;17;
77699;PMS5003;66867;42.658;23.320;2023-04-25T03:25:00;17;17;
77699;PMS5003;66867;42.658;23.320;2023-04-25T03:26:00;19;18;
77699;PMS5003;66867;42.658;23.320;2023-04-25T03:27:00;17;15;
77699;PMS5003;66867;42.658;23.320;2023-04-25T03:28:00;16;16;
77699;PMS5003;66867;42.658;23.320;2023-04-25T03:29:00;16;16;
77699;PMS5003;66867;42.658;23.320;2023-04-25T03:30:00;16;16;
77699;PMS5003;66867;42.658;23.320;2023-04-25T03:31:00;17;17;
77699;PMS5003;66867;42.658;23.320;2023-04-25T03:32:00;15;15;
77699;PMS5003;66867;42.658;23.320;2023-04-25T03:33:00;12;12;
77699;PMS5003;66867;42.658;23.320;2023-04-25T03:34:00;12;12;
77699;PMS5003;66867;42.658;23.320;2023-04-25T03:35:00;14;12;
77699;PMS5003;66867;42.658;23.320;2023-04-25T03:36:00;14;14;
77699;PMS5003;66867;42.658;23.320;2023-04-25T03:37:00;15;15;
77699;PMS5003;66867;42.658;23.320;2023-04-25T03:38:00;14;12;
77699;PMS5003;66867;42.658;23.320;2023-04-25T03:39:00;19;19;
77699;PMS5003;66867;42.658;23.320;2023-04-25T03:40:00;16;15;
77699;PMS5003;66867;42.658;23.320;2023-04-25T03:41:00;19;18;
77699;PMS5003;66867;42.658;23.320;2023-04-25T03:42:00;16;15;
77699;PMS5003;66867;42.658;23.320;2023-04-25T03:43:00;19;18;
77699;PMS5003;66867;42.658;23.320;2023-04-25T03:44:00;21;20;
77699;PMS5003;66867;42.658;23.320;2023-04-25T03:45:00;15;15;
77699;PMS5003;66867;42.658;23.320;2023-04-25T03:46:00;16;16;
77699;PMS5003;66867;42.658;23.320;2023-04-25T03:47:00;18;18;
77699;PMS5003;66867;42.658;23.320;2023-04-25T03:48:00;17;16;
77699;PMS5003;66867;42.658;23.320;2023-04-25T03:49:00;16;15;
77699;PMS5003;66867;42.658;23.320;2023-04-25T03:50:00;17;16;
77699;PMS5003;66867;42.658;23.320;2023-04-25T03:51:00;20;20;
77699;PMS5003;66867;42.658;23.320;2023-04-25T03:52:00;19;19;
77699;PMS5003;66867;42.658;23.320;2023-04-25T03:53:00;21;19;
77699;PMS5003;66867;42.658;23.320;2023-04-25T03:54:00;17;17;
77699;PMS5003;66867;42.658;23.320;2023-04-25T03:55:00;18;17;
77699;PMS5003;66867;42.658;23.320;2023-04-25T03:56:00;16;16;
77699;PMS5003;66867;42.658;23.320;2023-04-25T03:57:00;18;17;
77699;PMS5003;66867;42.658;23.320;2023-04-25T03:58:00;16;16;
77699;PMS5003;66867;42.658;23.320;2023-04-25T03:59:00;21;21;
77699;PMS5003;66867;42.658;23.320;2023-04-25T04:00:00;17;17;
77699;PMS5003;66867;42.658;23.320;2023-04-25T04:01:00;17;17;
77699;PMS5003;66867;42.658;23.320;2023-04-25T04:02:00;20;20;
77699;PMS5003;66867;42.658;23.320;2023-04-25T04:03:00;19;19;
77699;PMS5003;66867;42.658;23.320;2023-04-25T04:04:00;19;18;
77699;PMS5003;66867;42.658;23.320;2023-04-25T04:05:00;16;16;
77699;PMS5003;66867;42.658;23.320;2023-04-25T04:06:00;16;16;
77699;PMS5003;66867;42.658;23.320;2023-04-25T04:07:00;19;17;
77699;PMS5003;66867;42.658;23.320;2023-04-25T04:08:00;18;18;
77699;PMS5003;66867;42.658;23.320;2023-04-25T04:09:00;17;17;
77699;PMS5003;66867;42.658;23.320;2023-04-25T04:10:00;16;16;
77699;PMS5003;66867;42.658;23.320;2023-04-25T04:11:00;16;16;
77699;PMS5003;66867;42.658;23.320;2023-04-25T04:12:00;20;19;
77699;PMS5003;66867;42.658;23.320;2023-04-25T04:13:00;17;17;
77699;PMS5003;66867;42.658;23.320;2023-04-25T04:14:00;18;18;
77699;PMS5003;66867;42.658;23.320;2023-04-25T04:15:01;19;19;
77699;PMS5003;66867;42.658;23.320;2023-04-25T04:16:00;18;17;
77699;PMS5003;66867;42.658;23.320;2023-04-25T04:17:00;17;17;
77699;PMS5003;66867;42.658;23.320;2023-04-25T04:18:00;19;18;
77699;PMS5003;66867;42.658;23.320;2023-04-25T04:19:00;18;18;
77699;PMS5003;66867;42.658;23.320;2023-04-25T04:20:00;16;15;
77699;PMS5003;66867;42.658;23.320;2023-04-25T04:21:00;17;16;
77699;PMS5003;66867;42.658;23.320;2023-04-25T04:22:00;17;17;
77699;PMS5003;66867;42.658;23.320;2023-04-25T04:23:00;16;16;
77699;PMS5003;66867;42.658;23.320;2023-04-25T04:24:00;18;17;
77699;PMS5003;66867;42.658;23.320;2023-04-25T04:25:00;21;19;
77699;PMS5003;66867;42.658;23.320;2023-04-25T04:26:00;17;17;
77699;PMS5003;66867;42.658;23.320;2023-04-25T04:27:00;19;19;
77699;PMS5003;66867;42.658;23.320;2023-04-25T04:28:00;17;16;
77699;PMS5003;66867;42.658;23.320;2023-04-25T04:29:00;17;17;
77699;PMS5003;66867;42.658;23.320;2023-04-25T04:30:00;19;19;
77699;PMS5003;66867;42.658;23.320;2023-04-25T04:31:00;16;16;
77699;PMS5003;66867;42.658;23.320;2023-04-25T04:32:00;20;19;
77699;PMS5003;66867;42.658;23.320;2023-04-25T04:33:00;19;18;
77699;PMS5003;66867;42.658;23.320;2023-04-25T04:34:00;20;19;
77699;PMS5003;66867;42.658;23.320;2023-04-25T04:35:00;16;16;
77699;PMS5003;66867;42.658;23.320;2023-04-25T04:36:00;18;18;
77699;PMS5003;66867;42.658;23.320;2023-04-25T04:37:00;19;19;
77699;PMS5003;66867;42.658;23.320;2023-04-25T04:38:00;18;17;
77699;PMS5003;66867;42.658;23.320;2023-04-25T04:39:00;20;20;
77699;PMS5003;66867;42.658;23.320;2023-04-25T04:40:00;18;18;
77699;PMS5003;66867;42.658;23.320;2023-04-25T04:41:00;19;19;
77699;PMS5003;66867;42.658;23.320;2023-04-25T04:42:00;19;18;
77699;PMS5003;66867;42.658;23.320;2023-04-25T04:43:00;19;19;
77699;PMS5003;66867;42.658;23.320;2023-04-25T04:44:00;18;18;
77699;PMS5003;66867;42.658;23.320;2023-04-25T04:45:00;17;16;
77699;PMS5003;66867;42.658;23.320;2023-04-25T04:46:00;18;18;
77699;PMS5003;66867;42.658;23.320;2023-04-25T04:47:00;17;16;
77699;PMS5003;66867;42.658;23.320;2023-04-25T04:48:00;15;15;
77699;PMS5003;66867;42.658;23.320;2023-04-25T04:49:00;16;15;
77699;PMS5003;66867;42.658;23.320;2023-04-25T04:50:00;17;17;
77699;PMS5003;66867;42.658;23.320;2023-04-25T04:51:00;16;16;
77699;PMS5003;66867;42.658;23.320;2023-04-25T04:52:00;16;16;
77699;PMS5003;66867;42.658;23.320;2023-04-25T04:53:01;20;20;
77699;PMS5003;66867;42.658;23.320;2023-04-25T04:54:00;29;29;
77699;PMS5003;66867;42.658;23.320;2023-04-25T04:55:00;20;20;
77699;PMS5003;66867;42.658;23.320;2023-04-25T04:56:00;17;17;
77699;PMS5003;66867;42.658;23.320;2023-04-25T04:57:00;16;16;
77699;PMS5003;66867;42.658;23.320;2023-04-25T04:58:00;18;15;
77699;PMS5003;66867;42.658;23.320;2023-04-25T04:59:00;19;17;
77699;PMS5003;66867;42.658;23.320;2023-04-25T05:00:00;13;13;
77699;PMS5003;66867;42.658;23.320;2023-04-25T05:01:00;13;13;
77699;PMS5003;66867;42.658;23.320;2023-04-25T05:02:00;15;15;
77699;PMS5003;66867;42.658;23.320;2023-04-25T05:03:00;14;14;
77699;PMS5003;66867;42.658;23.320;2023-04-25T05:04:00;13;12;
77699;PMS5003;66867;42.658;23.320;2023-04-25T05:05:00;14;14;
77699;PMS5003;66867;42.658;23.320;2023-04-25T05:06:00;16;16;
77699;PMS5003;66867;42.658;23.320;2023-04-25T05:07:00;20;19;
77699;PMS5003;66867;42.658;23.320;2023-04-25T05:08:00;19;19;
77699;PMS5003;66867;42.658;23.320;2023-04-25T05:09:00;21;21;
77699;PMS5003;66867;42.658;23.320;2023-04-25T05:10:00;17;17;
77699;PMS5003;66867;42.658;23.320;2023-04-25T05:11:00;17;17;
77699;PMS5003;66867;42.658;23.320;2023-04-25T05:16:00;20;20;
77699;PMS5003;66867;42.658;23.320;2023-04-25T05:17:00;20;20;
77699;PMS5003;66867;42.658;23.320;2023-04-25T05:18:01;18;18;
77699;PMS5003;66867;42.658;23.320;2023-04-25T05:19:00;22;21;
77699;PMS5003;66867;42.658;23.320;2023-04-25T05:20:00;21;21;
77699;PMS5003;66867;42.658;23.320;2023-04-25T05:21:00;26;25;
77699;PMS5003;66867;42.658;23.320;2023-04-25T05:22:00;24;23;
77699;PMS5003;66867;42.658;23.320;2023-04-25T05:23:00;23;23;
77699;PMS5003;66867;42.658;23.320;2023-04-25T05:24:00;23;22;
77699;PMS5003;66867;42.658;23.320;2023-04-25T05:25:00;24;24;
77699;PMS5003;66867;42.658;23.320;2023-04-25T05:26:00;26;26;
77699;PMS5003;66867;42.658;23.320;2023-04-25T05:27:00;22;22;
77699;PMS5003;66867;42.658;23.320;2023-04-25T05:28:00;26;26;
77699;PMS5003;66867;42.658;23.320;2023-04-25T05:29:00;25;25;
77699;PMS5003;66867;42.658;23.320;2023-04-25T05:30:00;24;24;
77699;PMS5003;66867;42.658;23.320;2023-04-25T05:31:00;26;25;
77699;PMS5003;66867;42.658;23.320;2023-04-25T05:32:00;25;25;
77699;PMS5003;66867;42.658;23.320;2023-04-25T05:33:00;29;29;
77699;PMS5003;66867;42.658;23.320;2023-04-25T05:34:00;24;24;
77699;PMS5003;66867;42.658;23.320;2023-04-25T05:35:00;27;26;
77699;PMS5003;66867;42.658;23.320;2023-04-25T05:36:00;24;23;
77699;PMS5003;66867;42.658;23.320;2023-04-25T05:37:00;24;24;
77699;PMS5003;66867;42.658;23.320;2023-04-25T05:38:00;25;25;
77699;PMS5003;66867;42.658;23.320;2023-04-25T05:39:00;26;25;
77699;PMS5003;66867;42.658;23.320;2023-04-25T05:40:00;26;25;
77699;PMS5003;66867;42.658;23.320;2023-04-25T05:41:00;26;26;
77699;PMS5003;66867;42.658;23.320;2023-04-25T05:42:00;26;26;
77699;PMS5003;66867;42.658;23.320;2023-04-25T05:43:00;26;26;
77699;PMS5003;66867;42.658;23.320;2023-04-25T05:44:00;26;25;
77699;PMS5003;66867;42.658;23.320;2023-04-25T05:45:00;26;25;
77699;PMS5003;66867;42.658;23.320;2023-04-25T05:50:00;24;24;
77699;PMS5003;66867;42.658;23.320;2023-04-25T05:51:00;27;26;
77699;PMS5003;66867;42.658;23.320;2023-04-25T05:52:00;24;23;
77699;PMS5003;66867;42.658;23.320;2023-04-25T05:53:00;29;26;
77699;PMS5003;66867;42.658;23.320;2023-04-25T05:54:00;30;28;
77699;PMS5003;66867;42.658;23.320;2023-04-25T05:55:00;31;31;
77699;PMS5003;66867;42.658;23.320;2023-04-25T05:56:00;25;24;
77699;PMS5003;66867;42.658;23.320;2023-04-25T05:57:00;28;27;
77699;PMS5003;66867;42.658;23.320;2023-04-25T05:58:00;28;28;
77699;PMS5003;66867;42.658;23.320;2023-04-25T05:59:00;26;25;
77699;PMS5003;66867;42.658;23.320;2023-04-25T06:00:00;23;23;
77699;PMS5003;66867;42.658;23.320;2023-04-25T06:01:01;24;24;
77699;PMS5003;66867;42.658;23.320;2023-04-25T06:02:00;29;27;
77699;PMS5003;66867;42.658;23.320;2023-04-25T06:03:00;25;24;
77699;PMS5003;66867;42.658;23.320;2023-04-25T06:04:00;30;28;
77699;PMS5003;66867;42.658;23.320;2023-04-25T06:05:00;27;27;
77699;PMS5003;66867;42.658;23.320;2023-04-25T06:06:00;25;24;
77699;PMS5003;66867;42.658;23.320;2023-04-25T06:07:00;31;31;
77699;PMS5003;66867;42.658;23.320;2023-04-25T06:08:00;40;34;
77699;PMS5003;66867;42.658;23.320;2023-04-25T06:09:00;37;33;
77699;PMS5003;66867;42.658;23.320;2023-04-25T06:10:00;33;31;
77699;PMS5003;66867;42.658;23.320;2023-04-25T06:11:00;30;30;
77699;PMS5003;66867;42.658;23.320;2023-04-25T06:12:00;39;34;
77699;PMS5003;66867;42.658;23.320;2023-04-25T06:13:00;43;37;
77699;PMS5003;66867;42.658;23.320;2023-04-25T06:14:00;23;23;
77699;PMS5003;66867;42.658;23.320;2023-04-25T06:15:00;22;22;
77699;PMS5003;66867;42.658;23.320;2023-04-25T06:16:00;28;28;
77699;PMS5003;66867;42.658;23.320;2023-04-25T06:17:00;27;27;
77699;PMS5003;66867;42.658;23.320;2023-04-25T06:18:00;28;28;
77699;PMS5003;66867;42.658;23.320;2023-04-25T06:19:00;30;28;
77699;PMS5003;66867;42.658;23.320;2023-04-25T06:20:00;22;21;
77699;PMS5003;66867;42.658;23.320;2023-04-25T06:21:00;28;26;
77699;PMS5003;66867;42.658;23.320;2023-04-25T06:22:00;21;19;
77699;PMS5003;66867;42.658;23.320;2023-04-25T06:23:00;21;21;
77699;PMS5003;66867;42.658;23.320;2023-04-25T06:24:00;21;21;
77699;PMS5003;66867;42.658;23.320;2023-04-25T06:25:00;20;19;
77699;PMS5003;66867;42.658;23.320;2023-04-25T06:26:00;23;21;
77699;PMS5003;66867;42.658;23.320;2023-04-25T06:27:00;22;21;
77699;PMS5003;66867;42.658;23.320;2023-04-25T06:28:00;18;17;
77699;PMS5003;66867;42.658;23.320;2023-04-25T06:29:00;19;19;
77699;PMS5003;66867;42.658;23.320;2023-04-25T06:30:00;21;21;
77699;PMS5003;66867;42.658;23.320;2023-04-25T06:31:00;24;24;
77699;PMS5003;66867;42.658;23.320;2023-04-25T06:32:00;22;22;
77699;PMS5003;66867;42.658;23.320;2023-04-25T06:33:00;20;19;
77699;PMS5003;66867;42.658;23.320;2023-04-25T06:34:00;22;20;
77699;PMS5003;66867;42.658;23.320;2023-04-25T06:35:00;20;17;
77699;PMS5003;66867;42.658;23.320;2023-04-25T06:36:00;18;18;
77699;PMS5003;66867;42.658;23.320;2023-04-25T06:37:00;23;22;
77699;PMS5003;66867;42.658;23.320;2023-04-25T06:38:00;21;21;
77699;PMS5003;66867;42.658;23.320;2023-04-25T06:39:00;18;18;
77699;PMS5003;66867;42.658;23.320;2023-04-25T06:40:00;21;21;